Time;durP1;ratioP1;P1;durP2;ratioP2;P2;SDS_P1;SDS_P2;PMS_P1;PMS_P2;Temp;Humidity;BMP_temperature;BMP_pressure;BME280_temperature;BME280_humidity;BME280_pressure;Samples;Min_cycle;Max_cycle;Signal;HPM_P1;HPM_P2
2023/02/18 00:01:22;;;;;;;28.88;19.25;;;;;;;11.52;68.46;100756.94;5044844;28;20098;-68
2023/02/18 00:03:48;;;;;;;31.88;20.20;;;;;;;11.60;68.61;100775.09;5037654;28;20108;-67
2023/02/18 00:06:19;;;;;;;30.73;20.33;;;;;;;11.49;68.34;100758.00;5033625;28;20163;-68
2023/02/18 00:08:45;;;;;;;31.08;20.77;;;;;;;11.57;69.07;100763.59;5037664;28;20049;-67
2023/02/18 00:11:12;;;;;;;28.38;20.08;;;;;;;11.54;69.14;100774.59;5027083;28;20395;-69
2023/02/18 00:13:38;;;;;;;30.98;20.90;;;;;;;11.44;69.04;100743.28;5041658;28;20017;-68
2023/02/18 00:16:06;;;;;;;28.92;19.90;;;;;;;11.42;69.92;100753.31;5036971;28;20032;-67
2023/02/18 00:18:32;;;;;;;30.33;20.20;;;;;;;11.37;69.72;100744.78;5033377;28;20044;-68
2023/02/18 00:20:58;;;;;;;30.02;21.00;;;;;;;11.36;69.05;100735.84;5034144;28;20037;-67
2023/02/18 00:23:24;;;;;;;28.02;19.42;;;;;;;11.36;69.25;100730.50;5033162;28;20032;-68
2023/02/18 00:25:58;;;;;;;33.25;20.30;;;;;;;11.35;68.92;100731.47;5037714;28;20025;-68
2023/02/18 00:28:24;;;;;;;30.98;20.23;;;;;;;11.32;69.01;100731.72;5036193;28;20403;-68
2023/02/18 00:30:49;;;;;;;30.48;20.00;;;;;;;11.34;69.67;100747.72;5035048;28;20030;-66
2023/02/18 00:33:14;;;;;;;33.45;20.30;;;;;;;11.39;69.57;100740.16;5037039;28;20059;-68
2023/02/18 00:35:40;;;;;;;31.35;20.77;;;;;;;11.14;69.17;100701.09;5033446;28;20033;-68
2023/02/18 00:38:05;;;;;;;31.17;21.08;;;;;;;11.20;69.63;100716.69;5036602;28;20029;-68
2023/02/18 00:40:31;;;;;;;31.15;21.02;;;;;;;11.43;68.89;100741.59;5032570;28;20029;-68
2023/02/18 00:42:56;;;;;;;31.30;20.20;;;;;;;11.35;69.82;100727.94;5037747;28;20032;-67
2023/02/18 00:45:22;;;;;;;27.80;18.40;;;;;;;11.25;69.50;100719.81;5037179;28;20104;-68
2023/02/18 00:47:47;;;;;;;28.08;19.88;;;;;;;11.03;69.87;100686.88;5036720;28;20108;-67
2023/02/18 00:50:13;;;;;;;33.67;19.58;;;;;;;11.13;70.25;100715.47;5031889;28;20254;-67
2023/02/18 00:52:38;;;;;;;27.63;19.55;;;;;;;10.98;69.92;100683.69;5032880;28;20070;-67
2023/02/18 00:55:04;;;;;;;26.73;19.30;;;;;;;11.16;70.65;100727.81;5028332;28;20140;-67
2023/02/18 00:57:29;;;;;;;27.30;18.83;;;;;;;11.17;70.88;100733.03;5032743;28;20025;-67
2023/02/18 00:59:55;;;;;;;32.00;20.98;;;;;;;11.08;71.03;100706.97;5035975;28;20034;-68
2023/02/18 01:02:20;;;;;;;28.63;19.88;;;;;;;10.91;71.09;100698.63;5040749;28;20499;-67
2023/02/18 01:04:46;;;;;;;30.40;21.33;;;;;;;10.91;71.59;100696.78;5040261;28;20037;-67
2023/02/18 01:07:11;;;;;;;30.25;20.80;;;;;;;10.85;71.61;100689.25;5037584;28;20029;-67
2023/02/18 01:09:37;;;;;;;32.55;22.08;;;;;;;10.98;71.27;100697.97;5039220;28;20087;-67
2023/02/18 01:12:03;;;;;;;32.70;20.80;;;;;;;10.99;71.78;100701.50;5038250;28;20027;-69
2023/02/18 01:14:28;;;;;;;34.97;22.92;;;;;;;10.95;70.99;100689.31;5034070;28;20440;-68
2023/02/18 01:16:54;;;;;;;32.20;21.55;;;;;;;10.98;71.07;100711.41;5040057;28;20037;-69
2023/02/18 01:19:19;;;;;;;33.90;21.55;;;;;;;10.79;71.75;100664.75;5039215;28;20051;-69
2023/02/18 01:21:45;;;;;;;37.58;24.48;;;;;;;10.79;71.50;100657.56;5032422;28;20092;-68
2023/02/18 01:24:10;;;;;;;31.40;22.50;;;;;;;10.90;71.82;100678.97;5038647;28;20025;-68
2023/02/18 01:26:36;;;;;;;30.50;22.70;;;;;;;10.80;72.22;100669.97;5036899;28;20021;-67
2023/02/18 01:29:01;;;;;;;32.08;22.30;;;;;;;10.76;71.88;100662.31;5038304;28;20409;-68
2023/02/18 01:31:27;;;;;;;34.45;22.23;;;;;;;10.75;72.43;100676.72;5038337;28;20039;-67
2023/02/18 01:33:52;;;;;;;32.97;22.75;;;;;;;10.68;71.51;100652.22;5041467;28;20036;-68
2023/02/18 01:36:18;;;;;;;30.80;21.98;;;;;;;10.84;71.91;100692.88;5041310;28;20047;-68
2023/02/18 01:38:43;;;;;;;35.75;24.77;;;;;;;10.68;71.96;100671.00;5038431;28;20057;-68
2023/02/18 01:41:09;;;;;;;35.85;24.95;;;;;;;10.90;71.62;100696.91;5038303;28;20471;-68
2023/02/18 01:43:35;;;;;;;35.03;23.52;;;;;;;10.83;72.03;100688.50;5037299;28;20021;-67
2023/02/18 01:46:13;;;;;;;36.55;24.33;;;;;;;10.70;72.15;100661.00;5035897;28;20114;-68
2023/02/18 01:48:45;;;;;;;34.55;23.77;;;;;;;10.72;71.83;100672.47;5032565;28;20076;-69
2023/02/18 01:51:12;;;;;;;39.05;24.52;;;;;;;10.76;72.28;100675.72;5032894;28;20032;-68
2023/02/18 01:54:04;;;;;;;38.42;25.25;;;;;;;10.75;72.55;100672.22;5037373;28;20424;-68
2023/02/18 01:57:04;;;;;;;36.63;24.98;;;;;;;10.80;71.33;100669.97;5032780;28;20121;-68
2023/02/18 01:59:36;;;;;;;39.55;25.60;;;;;;;10.81;71.71;100670.84;5041788;28;20140;-68
2023/02/18 02:02:02;;;;;;;37.10;25.42;;;;;;;10.71;71.87;100651.97;5032269;28;20116;-68
2023/02/18 02:04:27;;;;;;;37.03;25.70;;;;;;;10.49;71.91;100614.50;5035930;28;20122;-69
2023/02/18 02:06:53;;;;;;;35.33;24.33;;;;;;;10.75;71.83;100656.13;5038380;28;20069;-68
2023/02/18 02:09:22;;;;;;;36.55;24.92;;;;;;;10.80;71.90;100675.34;4990003;28;1203210;-68
2023/02/18 02:12:06;;;;;;;39.83;26.55;;;;;;;10.85;71.72;100683.00;5043362;28;20021;-67
2023/02/18 02:15:02;;;;;;;38.03;25.52;;;;;;;10.97;71.04;100682.00;5042327;28;20021;-72
2023/02/18 02:17:46;;;;;;;38.72;26.65;;;;;;;10.97;71.40;100682.00;5037992;28;20424;-73
2023/02/18 02:20:50;;;;;;;39.85;26.55;;;;;;;10.98;70.42;100675.66;5034711;28;20431;-72
2023/02/18 02:23:40;;;;;;;43.58;27.30;;;;;;;11.04;70.35;100673.31;5032815;28;20548;-72
2023/02/18 02:26:19;;;;;;;38.67;25.42;;;;;;;11.09;69.84;100665.72;5038546;28;20109;-74
2023/02/18 02:29:12;;;;;;;43.47;27.52;;;;;;;11.06;69.49;100652.53;5044214;28;20040;-73
2023/02/18 02:31:57;;;;;;;43.30;27.48;;;;;;;11.23;69.57;100675.28;5037090;28;20051;-73
2023/02/18 02:35:04;;;;;;;43.65;27.83;;;;;;;11.17;69.44;100670.44;5036703;28;20475;-73
2023/02/18 02:37:54;;;;;;;40.72;25.67;;;;;;;11.03;70.11;100663.53;5029224;28;20111;-73
2023/02/18 02:40:29;;;;;;;42.47;26.25;;;;;;;11.04;69.79;100664.41;5037804;28;20029;-73
2023/02/18 02:43:07;;;;;;;41.70;27.95;;;;;;;11.14;69.47;100668.88;5038727;28;20133;-72
2023/02/18 02:46:00;;;;;;;43.88;28.80;;;;;;;11.15;69.42;100675.94;5035835;28;20029;-73
2023/02/18 02:48:31;;;;;;;42.50;27.38;;;;;;;11.01;70.40;100670.03;5037209;28;20495;-72
2023/02/18 02:51:16;;;;;;;47.03;28.70;;;;;;;10.98;70.06;100671.13;5031627;28;20091;-72
2023/02/18 02:53:42;;;;;;;42.78;28.05;;;;;;;10.93;70.27;100676.03;5037554;28;20025;-73
2023/02/18 02:56:23;;;;;;;45.40;28.50;;;;;;;11.09;69.68;100681.81;5046482;28;20032;-72
2023/02/18 02:59:11;;;;;;;47.70;31.27;;;;;;;11.03;69.72;100679.63;5042277;28;20053;-72
2023/02/18 03:02:14;;;;;;;49.00;29.90;;;;;;;11.04;69.37;100689.41;5038768;28;20037;-72
2023/02/18 03:04:52;;;;;;;42.15;28.77;;;;;;;10.95;70.32;100684.81;5037633;28;20494;-73
2023/02/18 03:07:45;;;;;;;46.22;28.58;;;;;;;10.98;70.15;100691.75;5033683;28;20124;-69
2023/02/18 03:10:34;;;;;;;46.25;29.58;;;;;;;11.16;69.29;100679.47;5040395;28;20041;-68
2023/02/18 03:13:28;;;;;;;47.15;30.02;;;;;;;11.21;68.91;100693.34;5039322;28;20086;-67
2023/02/18 03:15:53;;;;;;;45.95;28.98;;;;;;;11.10;68.92;100694.25;5035489;28;20052;-67
2023/02/18 03:18:32;;;;;;;46.13;30.35;;;;;;;11.05;69.22;100675.00;5036550;28;20033;-73
2023/02/18 03:21:07;;;;;;;46.58;30.05;;;;;;;11.07;69.18;100693.66;5037941;28;20029;-72
2023/02/18 03:23:45;;;;;;;50.90;32.15;;;;;;;10.95;70.32;100678.59;5040509;28;20025;-73
2023/02/18 03:26:13;;;;;;;48.13;30.15;;;;;;;10.93;69.93;100678.72;5035622;28;20039;-67
2023/02/18 03:28:40;;;;;;;48.20;29.50;;;;;;;10.93;70.42;100693.97;5034494;28;20421;-68
2023/02/18 03:31:11;;;;;;;47.65;30.30;;;;;;;10.85;70.72;100691.06;5035149;28;20545;-67
2023/02/18 03:33:45;;;;;;;47.10;30.27;;;;;;;10.75;70.34;100677.56;5032408;28;20056;-67
2023/02/18 03:36:11;;;;;;;50.58;32.13;;;;;;;10.88;70.24;100705.09;5033576;28;20562;-67
2023/02/18 03:38:43;;;;;;;51.63;33.03;;;;;;;10.87;70.07;100691.81;5039955;28;20041;-72
2023/02/18 03:41:09;;;;;;;52.30;32.63;;;;;;;10.86;70.41;100699.00;5045061;28;20025;-73
2023/02/18 03:43:34;;;;;;;55.60;33.33;;;;;;;10.80;70.91;100695.97;5038005;28;20017;-67
2023/02/18 03:46:01;;;;;;;51.58;32.83;;;;;;;10.75;69.98;100671.34;5040285;28;20553;-68
2023/02/18 03:48:27;;;;;;;52.67;32.63;;;;;;;10.79;70.71;100696.94;5037629;28;20534;-73
2023/02/18 03:50:52;;;;;;;54.17;33.05;;;;;;;10.79;70.60;100689.75;5041942;28;20108;-72
2023/02/18 03:53:18;;;;;;;55.35;34.35;;;;;;;10.64;70.28;100682.97;5041677;28;20017;-73
2023/02/18 03:55:43;;;;;;;54.22;33.13;;;;;;;10.81;69.81;100701.19;5034747;28;20113;-66
2023/02/18 03:58:09;;;;;;;62.13;36.08;;;;;;;10.74;69.90;100700.00;5037366;28;20032;-67
2023/02/18 04:00:34;;;;;;;54.95;35.17;;;;;;;10.76;69.85;100691.81;5037635;28;20037;-67
2023/02/18 04:03:00;;;;;;;56.58;34.75;;;;;;;10.71;70.14;100702.09;5036693;28;20037;-68
2023/02/18 04:05:25;;;;;;;55.53;34.85;;;;;;;10.66;70.35;100696.25;5039969;28;20460;-67
2023/02/18 04:07:51;;;;;;;58.53;37.08;;;;;;;10.43;70.99;100665.09;5037997;28;20037;-67
2023/02/18 04:10:16;;;;;;;57.75;35.13;;;;;;;10.51;71.04;100687.63;5035775;28;20042;-67
2023/02/18 04:12:42;;;;;;;59.92;37.00;;;;;;;10.46;70.73;100676.44;5040370;28;20037;-67
2023/02/18 04:15:08;;;;;;;56.90;35.13;;;;;;;10.53;71.11;100704.44;5039004;28;20029;-72
2023/02/18 04:17:34;;;;;;;60.72;36.20;;;;;;;10.68;69.93;100707.72;5038658;28;20033;-73
2023/02/18 04:19:59;;;;;;;59.53;35.20;;;;;;;10.63;69.68;100697.34;5037344;28;20037;-67
2023/02/18 04:22:25;;;;;;;57.70;36.00;;;;;;;10.69;69.75;100704.03;5038943;28;20040;-73
2023/02/18 04:24:50;;;;;;;55.30;34.55;;;;;;;10.54;71.25;100706.16;5035432;28;20025;-72
2023/02/18 04:27:16;;;;;;;58.38;35.20;;;;;;;10.48;71.20;100709.31;5039673;28;20058;-73
2023/02/18 04:29:41;;;;;;;60.42;37.10;;;;;;;10.63;70.06;100705.41;5032795;28;20021;-72
2023/02/18 04:32:07;;;;;;;60.63;37.92;;;;;;;10.51;70.69;100702.88;5039125;28;20057;-72
2023/02/18 04:34:32;;;;;;;59.92;37.13;;;;;;;10.52;70.89;100702.75;5034024;28;20029;-72
2023/02/18 04:36:58;;;;;;;65.07;39.30;;;;;;;10.55;70.59;100705.16;5040217;28;20021;-73
2023/02/18 04:39:23;;;;;;;59.28;36.85;;;;;;;10.42;71.38;100691.03;5038156;28;20069;-73
2023/02/18 04:41:49;;;;;;;61.30;37.78;;;;;;;10.56;71.04;100696.16;5039161;28;20388;-73
2023/02/18 04:44:14;;;;;;;60.35;37.28;;;;;;;10.52;70.70;100692.03;5036861;28;20026;-72
2023/02/18 04:46:40;;;;;;;65.25;39.70;;;;;;;10.48;70.67;100682.50;5035538;28;20028;-73
2023/02/18 04:49:05;;;;;;;61.70;38.40;;;;;;;10.46;70.68;100689.84;5036923;28;20040;-73
2023/02/18 04:51:30;;;;;;;63.58;37.63;;;;;;;10.36;71.06;100696.06;5038303;28;20024;-73
2023/02/18 04:53:56;;;;;;;62.95;38.30;;;;;;;10.49;70.46;100719.09;5036212;28;20035;-73
2023/02/18 04:56:21;;;;;;;63.83;39.35;;;;;;;10.35;70.81;100705.94;5039101;28;20025;-73
2023/02/18 04:58:47;;;;;;;60.80;37.33;;;;;;;10.32;71.30;100716.91;5035231;28;20028;-68
2023/02/18 05:01:13;;;;;;;58.03;36.25;;;;;;;10.20;71.79;100707.19;5036066;28;20021;-68
2023/02/18 05:03:38;;;;;;;62.83;38.28;;;;;;;10.15;71.67;100700.47;5035528;28;20068;-68
2023/02/18 05:06:04;;;;;;;63.63;38.78;;;;;;;10.27;71.51;100720.94;5034060;28;20124;-73
2023/02/18 05:08:29;;;;;;;59.63;38.78;;;;;;;10.18;72.07;100716.31;5042583;28;20073;-74
2023/02/18 05:10:55;;;;;;;62.75;36.95;;;;;;;10.12;72.49;100714.97;5036208;28;20031;-74
2023/02/18 05:13:21;;;;;;;65.18;38.38;;;;;;;10.15;72.33;100717.41;5040567;28;20025;-74
2023/02/18 05:15:47;;;;;;;62.83;37.92;;;;;;;10.07;72.65;100727.91;5039280;28;20029;-74
2023/02/18 05:18:13;;;;;;;63.95;37.97;;;;;;;10.20;71.46;100736.66;5036680;28;20471;-73
2023/02/18 05:20:38;;;;;;;60.97;36.20;;;;;;;9.97;72.44;100724.22;5035183;28;20032;-74
2023/02/18 05:23:04;;;;;;;69.97;39.65;;;;;;;10.15;72.04;100751.38;5032798;28;20029;-73
2023/02/18 05:25:29;;;;;;;60.70;38.90;;;;;;;10.10;72.09;100750.91;5044699;28;20125;-74
2023/02/18 05:27:54;;;;;;;61.75;38.92;;;;;;;9.91;72.66;100734.53;5036092;28;20029;-74
2023/02/18 05:30:20;;;;;;;61.50;39.17;;;;;;;10.00;72.38;100757.94;5039231;28;20102;-73
2023/02/18 05:32:45;;;;;;;64.40;39.50;;;;;;;9.95;72.97;100762.78;5038712;28;20035;-73
2023/02/18 05:35:12;;;;;;;58.75;36.15;;;;;;;9.89;73.42;100750.72;5039515;28;20041;-74
2023/02/18 05:37:37;;;;;;;62.47;36.75;;;;;;;9.95;73.33;100766.34;5033754;28;20040;-73
2023/02/18 05:40:04;;;;;;;62.05;36.92;;;;;;;9.90;73.56;100768.50;5031262;28;20551;-73
2023/02/18 05:42:29;;;;;;;61.28;37.38;;;;;;;10.01;73.11;100776.56;5035171;28;20036;-73
2023/02/18 05:44:54;;;;;;;65.35;38.08;;;;;;;9.97;73.28;100768.91;5040942;28;20079;-74
2023/02/18 05:47:20;;;;;;;63.80;37.70;;;;;;;9.95;73.58;100777.06;5041305;28;20408;-74
2023/02/18 05:49:45;;;;;;;62.95;38.33;;;;;;;9.94;73.99;100774.50;5035015;28;20048;-74
2023/02/18 05:52:11;;;;;;;62.85;37.03;;;;;;;9.78;74.23;100757.91;5040867;28;20021;-74
2023/02/18 05:54:37;;;;;;;65.50;38.05;;;;;;;9.88;74.47;100770.47;5035003;28;20044;-74
2023/02/18 05:57:03;;;;;;;58.92;35.85;;;;;;;9.84;74.71;100752.94;5032562;28;20029;-74
2023/02/18 05:59:28;;;;;;;58.25;35.35;;;;;;;10.12;73.87;100778.47;5038411;28;20102;-74
2023/02/18 06:01:54;;;;;;;59.97;35.08;;;;;;;9.96;74.37;100764.53;5034657;28;20091;-74
2023/02/18 06:04:20;;;;;;;58.53;34.35;;;;;;;9.99;74.99;100775.84;5039793;28;20065;-73
2023/02/18 06:06:46;;;;;;;61.20;36.45;;;;;;;9.90;75.12;100771.19;5036522;28;20033;-71
2023/02/18 06:09:12;;;;;;;55.03;33.28;;;;;;;9.92;75.58;100788.00;5034347;28;20065;-72
2023/02/18 06:11:38;;;;;;;56.28;33.78;;;;;;;9.89;75.78;100788.25;5036669;28;20404;-73
2023/02/18 06:14:04;;;;;;;58.05;34.30;;;;;;;9.95;75.63;100781.53;5042947;28;20036;-73
2023/02/18 06:16:31;;;;;;;59.53;35.45;;;;;;;9.79;75.87;100781.03;5029656;28;20033;-68
2023/02/18 06:18:56;;;;;;;61.10;35.05;;;;;;;9.86;75.92;100788.47;5029070;28;20111;-68
2023/02/18 06:21:22;;;;;;;56.50;34.40;;;;;;;9.95;75.97;100800.31;5032367;28;20123;-68
2023/02/18 06:23:48;;;;;;;55.30;33.28;;;;;;;9.89;75.85;100793.59;5039191;28;20021;-68
2023/02/18 06:26:13;;;;;;;56.75;33.40;;;;;;;10.21;75.17;100816.09;5032714;28;20086;-68
2023/02/18 06:28:39;;;;;;;55.90;33.67;;;;;;;10.08;76.09;100826.06;5030656;28;20032;-68
2023/02/18 06:31:04;;;;;;;56.97;33.85;;;;;;;10.09;75.81;100817.06;5033380;28;20036;-68
2023/02/18 06:33:30;;;;;;;55.50;34.53;;;;;;;10.21;75.36;100829.50;5026589;28;20083;-68
2023/02/18 06:36:06;;;;;;;62.00;35.15;;;;;;;10.10;75.62;100808.06;5021037;28;20537;-67
2023/02/18 06:38:35;;;;;;;53.88;33.65;;;;;;;10.18;75.70;100832.41;5019467;28;20034;-67
2023/02/18 06:41:01;;;;;;;56.92;35.00;;;;;;;10.16;74.72;100799.50;5030558;28;20116;-68
2023/02/18 06:43:27;;;;;;;54.13;33.63;;;;;;;10.11;74.93;100799.03;5030673;28;20115;-68
2023/02/18 06:45:53;;;;;;;56.33;33.30;;;;;;;10.24;75.79;100823.91;5033189;28;20037;-68
2023/02/18 06:48:18;;;;;;;51.72;32.25;;;;;;;10.29;75.69;100829.75;5034450;28;20025;-68
2023/02/18 06:50:44;;;;;;;49.28;31.50;;;;;;;10.28;76.10;100841.44;5030043;28;20032;-69
2023/02/18 06:53:10;;;;;;;56.25;33.40;;;;;;;10.34;75.52;100829.38;5039766;28;20096;-68
2023/02/18 06:55:35;;;;;;;57.20;31.70;;;;;;;10.65;74.62;100847.44;5030471;28;20021;-67
2023/02/18 06:58:00;;;;;;;54.88;32.22;;;;;;;10.54;74.56;100840.25;5033115;28;20088;-68
2023/02/18 07:00:26;;;;;;;56.67;34.20;;;;;;;10.61;74.63;100862.09;5044045;28;20036;-67
2023/02/18 07:02:51;;;;;;;54.80;33.88;;;;;;;10.60;74.57;100871.94;5037720;28;20620;-67
2023/02/18 07:05:17;;;;;;;50.92;31.60;;;;;;;10.53;74.71;100854.63;5038702;28;20025;-68
2023/02/18 07:07:42;;;;;;;53.22;32.95;;;;;;;10.53;74.45;100846.59;5032041;28;20025;-68
2023/02/18 07:10:08;;;;;;;52.55;33.30;;;;;;;10.20;74.93;100809.03;5028968;28;20072;-68
2023/02/18 07:12:34;;;;;;;52.05;31.98;;;;;;;10.53;75.10;100860.00;5038471;28;20111;-68
2023/02/18 07:14:59;;;;;;;50.08;32.17;;;;;;;10.34;75.17;100837.44;5041293;28;20625;-68
2023/02/18 07:17:25;;;;;;;55.75;33.65;;;;;;;10.56;74.80;100865.13;5042503;28;20104;-67
2023/02/18 07:19:50;;;;;;;54.75;32.50;;;;;;;10.35;75.59;100834.63;5032557;28;20037;-68
2023/02/18 07:22:16;;;;;;;59.47;35.28;;;;;;;10.59;75.03;100864.03;5032512;28;20043;-68
2023/02/18 07:24:42;;;;;;;52.13;31.80;;;;;;;10.49;75.37;100853.19;5026648;28;20071;-67
2023/02/18 07:27:07;;;;;;;53.78;32.10;;;;;;;10.51;75.86;100848.53;5040726;28;20052;-69
2023/02/18 07:29:33;;;;;;;48.10;28.55;;;;;;;10.54;77.04;100828.66;5035236;28;20100;-68
2023/02/18 07:31:58;;;;;;;45.25;28.55;;;;;;;10.63;76.76;100860.13;5035161;28;20031;-68
2023/02/18 07:34:24;;;;;;;53.47;32.58;;;;;;;10.64;76.15;100848.44;5040198;28;20192;-68
2023/02/18 07:36:49;;;;;;;56.03;33.53;;;;;;;10.57;76.03;100821.22;5038547;28;20034;-69
2023/02/18 07:39:19;;;;;;;54.55;33.85;;;;;;;10.40;75.87;100786.00;5038045;28;20081;-69
2023/02/18 07:41:45;;;;;;;50.08;31.77;;;;;;;10.73;76.26;100845.00;5037617;28;20378;-68
2023/02/18 07:44:11;;;;;;;49.83;31.02;;;;;;;10.47;76.37;100776.50;5037596;28;20036;-69
2023/02/18 07:46:40;;;;;;;48.75;28.77;;;;;;;10.83;76.77;100833.41;5045135;28;20021;-69
2023/02/18 07:49:05;;;;;;;39.25;24.33;;;;;;;11.44;76.43;100842.66;5037370;28;20490;-73
2023/02/18 07:51:30;;;;;;;42.22;25.58;;;;;;;11.36;77.06;100837.91;5041227;28;20033;-74
2023/02/18 07:53:56;;;;;;;42.42;25.60;;;;;;;11.22;76.50;100826.59;5038665;28;20029;-73
2023/02/18 07:56:21;;;;;;;43.42;25.63;;;;;;;11.26;76.83;100838.81;5034428;28;20040;-73
2023/02/18 07:58:47;;;;;;;41.58;24.73;;;;;;;11.41;76.07;100842.91;5029919;28;20112;-74
2023/02/18 08:01:14;;;;;;;45.83;26.90;;;;;;;11.30;76.31;100830.41;5030760;28;20028;-73
2023/02/18 08:03:40;;;;;;;42.80;26.45;;;;;;;11.39;76.27;100842.19;5031190;28;20052;-74
2023/02/18 08:06:06;;;;;;;42.92;26.20;;;;;;;11.36;75.74;100839.75;5040784;28;20037;-75
2023/02/18 08:08:33;;;;;;;44.15;27.23;;;;;;;11.36;75.85;100837.91;5038903;28;20491;-72
2023/02/18 08:11:06;;;;;;;49.70;29.90;;;;;;;11.35;75.89;100838.91;5033295;28;20425;-73
2023/02/18 08:13:32;;;;;;;52.58;31.88;;;;;;;11.36;75.04;100839.75;5038773;28;20053;-72
2023/02/18 08:15:57;;;;;;;53.80;32.38;;;;;;;11.35;74.64;100844.28;5038196;28;20060;-73
2023/02/18 08:18:24;;;;;;;57.38;35.25;;;;;;;11.25;74.06;100829.91;5037152;28;20558;-72
2023/02/18 08:20:53;;;;;;;55.47;34.28;;;;;;;11.29;73.87;100835.88;5037708;28;20040;-73
2023/02/18 08:23:21;;;;;;;64.85;36.42;;;;;;;11.28;73.14;100826.97;5036162;28;20064;-73
2023/02/18 08:25:49;;;;;;;59.40;37.35;;;;;;;11.36;73.00;100845.97;5036602;28;20020;-72
2023/02/18 08:28:15;;;;;;;55.90;34.42;;;;;;;11.37;73.00;100836.97;5036649;28;20031;-73
2023/02/18 08:30:48;;;;;;;56.03;34.97;;;;;;;11.44;72.86;100839.97;5037276;28;20490;-73
2023/02/18 08:33:14;;;;;;;60.05;34.85;;;;;;;11.31;73.00;100829.41;5041068;28;20033;-73
2023/02/18 08:35:40;;;;;;;54.35;33.78;;;;;;;11.49;73.00;100843.97;5043533;28;20083;-73
2023/02/18 08:38:06;;;;;;;54.78;32.65;;;;;;;11.48;73.04;100834.22;5029342;28;20038;-67
2023/02/18 08:40:31;;;;;;;50.67;31.63;;;;;;;11.70;72.93;100844.03;5030398;28;20036;-67
2023/02/18 08:42:57;;;;;;;49.10;30.08;;;;;;;11.68;73.17;100835.28;5033974;28;20048;-68
2023/02/18 08:45:22;;;;;;;41.50;27.35;;;;;;;12.05;71.84;100832.97;5042541;28;20021;-69
2023/02/18 08:47:47;;;;;;;42.00;26.60;;;;;;;11.96;72.07;100837.31;5031564;28;20052;-69
2023/02/18 08:50:13;;;;;;;40.63;25.58;;;;;;;12.03;72.65;100841.19;5030877;28;20547;-69
2023/02/18 08:52:39;;;;;;;35.00;23.10;;;;;;;11.95;72.56;100802.50;5033781;28;20032;-69
2023/02/18 08:55:05;;;;;;;35.88;23.70;;;;;;;12.26;72.41;100836.53;5034582;28;20052;-69
2023/02/18 08:57:30;;;;;;;35.63;23.23;;;;;;;12.27;72.51;100833.72;5037328;28;20079;-69
2023/02/18 08:59:56;;;;;;;32.28;21.33;;;;;;;12.22;72.78;100813.59;5028103;28;20084;-68
2023/02/18 09:02:21;;;;;;;31.88;21.08;;;;;;;12.36;72.40;100835.59;5034605;28;20031;-73
2023/02/18 09:04:47;;;;;;;32.17;22.23;;;;;;;12.66;71.45;100842.81;5037504;28;20021;-74
2023/02/18 09:07:12;;;;;;;35.35;22.52;;;;;;;12.57;71.00;100838.22;5042268;28;20100;-73
2023/02/18 09:09:38;;;;;;;39.55;24.55;;;;;;;12.64;70.72;100845.63;5039538;28;20072;-73
2023/02/18 09:12:04;;;;;;;42.35;26.08;;;;;;;12.56;70.09;100836.53;5029524;28;20033;-72
2023/02/18 09:14:29;;;;;;;42.08;27.10;;;;;;;12.52;70.72;100837.81;5032464;28;20029;-73
2023/02/18 09:16:57;;;;;;;49.05;31.15;;;;;;;12.56;69.36;100842.78;5040819;28;20125;-73
2023/02/18 09:19:22;;;;;;;49.45;30.85;;;;;;;12.54;69.75;100849.28;5038441;28;20028;-73
2023/02/18 09:21:47;;;;;;;48.33;29.98;;;;;;;12.65;68.89;100851.88;5044472;28;20079;-73
2023/02/18 09:24:13;;;;;;;44.83;28.95;;;;;;;12.51;68.83;100838.78;5044931;28;20051;-73
2023/02/18 09:26:39;;;;;;;45.28;29.73;;;;;;;12.58;68.75;100848.03;5042618;28;20094;-73
2023/02/18 09:29:05;;;;;;;49.10;30.92;;;;;;;12.55;68.32;100854.53;5044048;28;20187;-73
2023/02/18 09:31:30;;;;;;;48.28;29.38;;;;;;;12.49;68.29;100838.94;5033807;28;20232;-73
2023/02/18 09:33:59;;;;;;;51.30;31.80;;;;;;;12.62;67.84;100855.72;5042852;28;20020;-72
2023/02/18 09:36:25;;;;;;;48.67;30.88;;;;;;;12.76;66.92;100843.69;5041284;28;20105;-73
2023/02/18 09:38:51;;;;;;;51.60;31.80;;;;;;;12.85;67.60;100849.16;5048088;28;20031;-72
2023/02/18 09:41:29;;;;;;;50.40;31.25;;;;;;;13.05;67.11;100856.31;5043107;28;20067;-73
2023/02/18 09:43:59;;;;;;;49.95;31.48;;;;;;;13.10;66.77;100834.38;5040265;28;20044;-73
2023/02/18 09:46:35;;;;;;;55.15;32.47;;;;;;;13.30;65.56;100828.03;5041582;28;20091;-69
2023/02/18 09:49:12;;;;;;;46.28;30.42;;;;;;;13.69;64.28;100821.66;5034570;28;20495;-70
2023/02/18 09:51:38;;;;;;;44.17;29.30;;;;;;;14.04;63.19;100832.72;5036012;28;20017;-69
2023/02/18 09:54:03;;;;;;;45.35;29.33;;;;;;;14.40;61.44;100826.56;5037699;28;20044;-68
2023/02/18 09:56:34;;;;;;;42.47;27.65;;;;;;;14.57;60.74;100839.28;5034370;28;20086;-69
2023/02/18 09:59:03;;;;;;;38.00;26.23;;;;;;;14.65;60.49;100834.00;5043923;28;20071;-69
2023/02/18 10:01:36;;;;;;;41.30;27.73;;;;;;;14.74;60.39;100818.75;5038459;28;20679;-69
2023/02/18 10:04:18;;;;;;;44.72;27.40;;;;;;;15.10;59.36;100832.22;5045093;28;20057;-69
2023/02/18 10:06:47;;;;;;;44.50;26.80;;;;;;;14.99;59.70;100818.91;5039032;28;20033;-68
2023/02/18 10:09:21;;;;;;;37.30;25.23;;;;;;;15.03;59.45;100806.78;5039346;28;20528;-68
2023/02/18 10:12:10;;;;;;;34.70;22.85;;;;;;;15.79;57.72;100824.34;5037606;28;20078;-69
2023/02/18 10:14:35;;;;;;;36.75;23.50;;;;;;;16.61;54.86;100792.31;5025622;28;20045;-69
2023/02/18 10:17:03;;;;;;;34.22;21.08;;;;;;;17.26;53.29;100808.66;5041326;28;20596;-68
2023/02/18 10:19:33;;;;;;;34.92;22.63;;;;;;;17.60;51.89;100792.28;5035654;28;20087;-68
2023/02/18 10:22:01;;;;;;;30.83;20.52;;;;;;;17.85;51.54;100808.44;5034640;28;20045;-73
2023/02/18 10:24:31;;;;;;;32.55;20.88;;;;;;;17.93;51.79;100813.84;5032647;28;20025;-74
2023/02/18 10:26:57;;;;;;;29.58;21.10;;;;;;;17.63;51.52;100817.22;5044214;28;20103;-73
2023/02/18 10:29:24;;;;;;;30.50;20.92;;;;;;;17.61;51.75;100807.56;5039222;28;20051;-74
2023/02/18 10:32:03;;;;;;;31.20;19.25;;;;;;;17.14;52.98;100806.41;5041990;28;20379;-73
2023/02/18 10:34:41;;;;;;;27.77;19.48;;;;;;;16.80;54.23;100809.16;5031727;28;20028;-74
2023/02/18 10:37:23;;;;;;;33.88;20.90;;;;;;;16.42;54.98;100804.19;5037655;28;20118;-74
2023/02/18 10:39:57;;;;;;;36.33;21.83;;;;;;;16.22;55.94;100807.28;5038017;28;20040;-73
2023/02/18 10:42:55;;;;;;;;;;;;;;;15.80;56.99;100802.53;5036241;28;20025;-72
2023/02/18 10:45:47;;;;;;;32.30;20.92;;;;;;;15.50;58.47;100797.53;4997730;28;19938;-72
2023/02/18 10:48:33;;;;;;;33.50;20.10;;;;;;;15.37;58.91;100778.16;5038503;28;20116;-73
2023/02/18 10:51:04;;;;;;;31.73;21.30;;;;;;;15.12;60.03;100778.88;5036136;28;20028;-72
2023/02/18 10:53:37;;;;;;;31.67;21.30;;;;;;;15.19;60.05;100771.00;5038455;28;20075;-73
2023/02/18 10:56:05;;;;;;;31.10;21.42;;;;;;;14.98;61.24;100757.78;5025518;28;20093;-73
2023/02/18 10:58:46;;;;;;;32.28;20.55;;;;;;;14.97;61.04;100753.38;5024487;28;20252;-74
2023/02/18 11:01:17;;;;;;;29.27;19.10;;;;;;;14.98;61.26;100760.47;5019959;28;20033;-74
2023/02/18 11:03:44;;;;;;;29.10;18.58;;;;;;;15.16;61.15;100758.63;5025982;28;20490;-73
2023/02/18 11:06:37;;;;;;;28.77;17.63;;;;;;;14.99;61.80;100756.75;5021806;28;20119;-73
2023/02/18 11:09:02;;;;;;;24.90;17.50;;;;;;;15.03;62.48;100751.94;5034235;28;20438;-73
2023/02/18 11:11:35;;;;;;;28.05;17.50;;;;;;;15.10;62.15;100750.31;5032340;28;20020;-74
2023/02/18 11:14:03;;;;;;;29.65;17.27;;;;;;;15.21;61.30;100745.53;5034506;28;20276;-73
2023/02/18 11:16:44;;;;;;;29.08;18.25;;;;;;;15.26;61.23;100750.47;5035455;28;20024;-73
2023/02/18 11:19:33;;;;;;;25.75;16.45;;;;;;;15.22;61.31;100751.78;5032341;28;20099;-73